TBPBTNCM

Guest
Details From TBPB - Barbados/Grantley Adams Intl
To TNCM - St Maarten - Princess Juliana Intl
Flight Number -
Tags generated
Created
Modified
Stats Distance 371 nm / 686 km
Max Altitude 30,400 ft / 9,266 m
Waypoints 7
Social Downloads 3
Likes 0
Share VATSIM

Download

Looking for another format? Having issues loading an existing format? Contact us
Advertisement - Login to hide

Notes

Basic altitude profile: - Ascent Rate: 2500ft/min - Ascent Speed: 250kts - Cruise Altitude: 27000ft - Cruise Speed: 420kts - Descent Rate: 1500ft/min - Descent Speed: 250kts Options: - Use NATs: yes - Use PACOTS: yes - Use low airways: yes - Use high airways: yes

Route

TBPB BIRNO A632 ANU B520 ELOPO TNCM

ID Type Via Altitude Latitude Longitude Leg Dist Tot Dist Heading (true) Name
O TBPB APT - 0 ft / 0 m 13.07461˚ -59.49221˚ - 0 nm - Barbados/Grantley Adams Intl
BIRNO FIX - 30,400 ft / 9,266 m 14.36519˚ -60.21067˚ 88 nm 88 nm 332° / 332° -
TASAR FIX A632 (AWY-LO) 24,500 ft / 7,468 m 15.66778˚ -60.95444˚ 89 nm 177 nm 331° / 331° -
MEDUS FIX A632 (AWY-LO) 24,500 ft / 7,468 m 16.73933˚ -61.57453˚ 73 nm 251 nm 331° / 331° -
ANU NDB A632 (AWY-LO) 18,900 ft / 5,761 m 17.12588˚ -61.80017˚ 26 nm 277 nm 331° / 331° V C BIRD NDB
ELOPO FIX B520 (AWY-LO) 8,400 ft / 2,560 m 17.65006˚ -62.55439˚ 53 nm 331 nm 306° / 306° -
O TNCM APT - 0 ft / 0 m 18.04089˚ -63.10897˚ 39 nm 370 nm 307° / 306° St Maarten - Princess Juliana Intl

Altitude Profile

Advertisement - Login to hide

Weather


0- 5 10 15 20 25 30 35+ Temperature / ° C

Clouds and Precipitation
Forecast for 2018-05-24 06:00 UTC. Updated 4 hours ago

Ground ~20,000 ft ~40,000 ft Winds

TBPB

Details ICAO TBPB (BGI)
Name Barbados/Grantley Adams Intl
Region Barbados
Timezone America/Barbados (UTC-4.0)
Stats Elevation 168 ft / 51 m (AMSL)
Location 13.074614° -59.492206°
Runways 1
Magnetic Variation 15.625° W

METAR

TBPB 240800Z 09013KT 9999 FEW018 25/22 Q1016 NOSIG

Decode

TAF

Not found

Departure Runways

ID Width Length Bearing (true) Bearing (mag) Surface Threshold Offset Overrun Length
09 148 ft / 45 m 11,924 ft / 3,635 m 75.84° 91.46° Asphalt 0 ft / 0 m 174 ft / 53 m
27 148 ft / 45 m 11,924 ft / 3,635 m 255.85° 271.47° Asphalt 0 ft / 0 m 0 ft / 0 m

TNCM

Details ICAO TNCM (SXM)
Name St Maarten - Princess Juliana Intl
Region Caribbean Netherlands, Aruba, Curaçao, Sint Maarten
Timezone Unknown (UTC+0.0)
Stats Elevation 12 ft / 4 m (AMSL)
Location 18.040889° -63.108974°
Runways 1
Magnetic Variation 14.337° W

METAR

TNCM 240800Z 09011KT 060V120 9999 FEW017 26/22 Q1017 RMK A3005

Decode

TAF

TNCM 240520Z 2406/2506 07006KT P6SM VCSH SCT018 FM241400 10013KT P6SM SCT020

Decode

Destination Runways

ID Width Length Bearing (true) Bearing (mag) Surface Threshold Offset Overrun Length
10 148 ft / 45 m 7,464 ft / 2,275 m 81.43° 95.77° Asphalt 0 ft / 0 m 151 ft / 46 m
28 148 ft / 45 m 7,464 ft / 2,275 m 261.44° 275.78° Asphalt 397 ft / 121 m 0 ft / 0 m

Popular Alternatives